createdAt,value
2022-12-01T00:02:00.817Z,12.93
2022-12-01T00:04:33.237Z,13.30
2022-12-01T00:07:02.776Z,13.18
2022-12-01T00:09:44.766Z,13.00
2022-12-01T00:12:14.216Z,13.20
2022-12-01T00:14:43.844Z,13.70
2022-12-01T00:17:13.717Z,13.80
2022-12-01T00:19:46.117Z,13.27
2022-12-01T00:22:15.827Z,13.60
2022-12-01T00:24:45.633Z,13.00
2022-12-01T00:27:15.383Z,13.02
2022-12-01T00:29:45.086Z,14.25
2022-12-01T00:32:14.665Z,13.10
2022-12-01T00:34:47.890Z,13.55
2022-12-01T00:37:17.664Z,14.07
2022-12-01T00:39:48.020Z,13.70
2022-12-01T00:42:21.078Z,14.18
2022-12-01T00:44:50.607Z,13.45
2022-12-01T00:47:20.324Z,13.90
2022-12-01T00:49:52.794Z,13.77
2022-12-01T00:52:22.456Z,13.23
2022-12-01T00:54:51.943Z,13.60
2022-12-01T00:57:21.411Z,13.75
2022-12-01T00:59:51.048Z,13.32
2022-12-01T01:02:20.693Z,14.57
2022-12-01T01:04:52.795Z,14.52
2022-12-01T01:07:22.305Z,15.20
2022-12-01T01:09:51.788Z,15.68
2022-12-01T01:12:21.215Z,14.98
2022-12-01T01:14:50.691Z,15.52
2022-12-01T01:17:20.133Z,14.32
2022-12-01T01:19:52.501Z,14.77
2022-12-01T01:22:21.978Z,15.55
2022-12-01T01:24:51.433Z,15.13
2022-12-01T01:27:20.879Z,15.73
2022-12-01T01:29:50.559Z,16.42
2022-12-01T01:32:20.583Z,16.25
2022-12-01T01:34:54.016Z,16.67
2022-12-01T01:37:23.769Z,15.32
2022-12-01T01:39:54.052Z,15.30
2022-12-01T01:42:25.839Z,16.52
2022-12-01T01:44:56.187Z,16.85
2022-12-01T01:47:28.696Z,16.15
2022-12-01T01:50:08.755Z,14.95
2022-12-01T01:52:39.763Z,14.13
2022-12-01T01:55:10.524Z,15.18
2022-12-01T01:57:40.234Z,15.75
2022-12-01T02:00:11.422Z,15.95
2022-12-01T02:02:41.798Z,16.00
2022-12-01T02:05:15.651Z,16.13
2022-12-01T02:07:46.200Z,16.38
2022-12-01T02:10:22.894Z,16.15
2022-12-01T02:12:59.500Z,16.27
2022-12-01T02:15:33.472Z,17.17
2022-12-01T02:18:14.155Z,17.13
2022-12-01T02:20:54.771Z,17.55
2022-12-01T02:23:47.588Z,16.85
2022-12-01T02:26:34.017Z,16.60
2022-12-01T02:29:36.210Z,16.88
2022-12-01T02:32:11.383Z,17.15
2022-12-01T02:34:43.568Z,15.65
2022-12-01T02:37:16.166Z,16.05
2022-12-01T02:39:48.304Z,16.20
2022-12-01T02:42:41.468Z,16.00
2022-12-01T02:45:14.013Z,15.60
2022-12-01T02:47:46.003Z,16.20
2022-12-01T02:50:15.610Z,15.52
2022-12-01T02:52:45.055Z,15.52
2022-12-01T02:55:15.854Z,15.18
2022-12-01T02:57:52.766Z,15.13
2022-12-01T03:00:23.198Z,15.27
2022-12-01T03:03:17.408Z,14.68
2022-12-01T03:05:53.497Z,13.98
2022-12-01T03:08:26.148Z,13.73
2022-12-01T03:10:59.534Z,13.52
2022-12-01T03:13:39.629Z,14.32
2022-12-01T03:16:12.196Z,14.93
2022-12-01T03:18:48.015Z,14.45
2022-12-01T03:21:20.128Z,14.15
2022-12-01T03:23:53.157Z,14.45
2022-12-01T03:26:22.976Z,15.02
2022-12-01T03:28:53.988Z,15.05
2022-12-01T03:31:25.908Z,16.02
2022-12-01T03:34:02.784Z,15.18
2022-12-01T03:36:35.911Z,15.73
2022-12-01T03:39:33.097Z,15.55
2022-12-01T03:42:14.559Z,16.27
2022-12-01T03:44:48.377Z,17.25
2022-12-01T03:47:20.268Z,16.08
2022-12-01T03:49:54.928Z,17.02
2022-12-01T03:52:32.277Z,17.65
2022-12-01T03:55:11.824Z,17.92
2022-12-01T03:57:45.167Z,18.98
2022-12-01T04:00:17.530Z,18.83
2022-12-01T04:02:49.246Z,19.88
2022-12-01T04:05:25.563Z,19.45
2022-12-01T04:08:03.188Z,19.27
2022-12-01T04:10:33.675Z,20.67
2022-12-01T04:13:01.621Z,19.98
2022-12-01T04:15:34.921Z,20.60
2022-12-01T04:18:05.495Z,19.88
2022-12-01T04:20:38.298Z,18.20
2022-12-01T04:23:10.825Z,19.63
2022-12-01T04:25:45.973Z,19.15
2022-12-01T04:28:17.221Z,19.20
2022-12-01T04:30:49.985Z,18.70
2022-12-01T04:33:24.185Z,19.25
2022-12-01T04:36:09.881Z,19.23
2022-12-01T04:38:40.692Z,18.70
2022-12-01T04:41:21.687Z,19.60
2022-12-01T04:43:56.283Z,20.60
2022-12-01T04:46:28.427Z,19.50
2022-12-01T04:48:59.044Z,20.02
2022-12-01T04:51:37.962Z,19.33
2022-12-01T04:54:13.103Z,19.02
2022-12-01T04:56:44.173Z,20.05
2022-12-01T04:59:20.474Z,19.80
2022-12-01T05:01:55.323Z,19.60
2022-12-01T05:05:01.027Z,19.45
2022-12-01T05:07:35.002Z,19.00
2022-12-01T05:10:15.402Z,20.42
2022-12-01T05:13:06.179Z,19.63
2022-12-01T05:15:44.504Z,19.45
2022-12-01T05:18:17.216Z,20.42
2022-12-01T05:20:57.303Z,21.63
2022-12-01T05:23:34.995Z,20.70
2022-12-01T05:26:07.351Z,21.50
2022-12-01T05:28:44.667Z,20.65
2022-12-01T05:31:14.791Z,19.73
2022-12-01T05:33:48.369Z,20.23
2022-12-01T05:36:19.182Z,20.65
2022-12-01T05:38:52.474Z,21.45
2022-12-01T05:41:22.964Z,20.73
2022-12-01T05:43:53.724Z,20.10
2022-12-01T05:46:24.113Z,20.20
2022-12-01T05:48:56.116Z,21.35
2022-12-01T05:51:26.792Z,20.88
2022-12-01T05:53:59.543Z,21.05
2022-12-01T05:56:30.775Z,21.95
2022-12-01T05:59:00.291Z,20.70
2022-12-01T06:01:29.756Z,21.05
2022-12-01T06:03:59.343Z,22.33
2022-12-01T06:06:28.855Z,21.80
2022-12-01T06:09:01.408Z,23.10
2022-12-01T06:11:31.451Z,22.33
2022-12-01T06:14:01.907Z,22.43
2022-12-01T06:16:31.488Z,22.58
2022-12-01T06:19:01.014Z,21.95
2022-12-01T06:21:30.459Z,23.95
2022-12-01T06:24:02.494Z,22.10
2022-12-01T06:26:31.939Z,21.85
2022-12-01T06:29:01.410Z,22.52
2022-12-01T06:31:30.954Z,22.15
2022-12-01T06:34:00.839Z,22.00
2022-12-01T06:36:30.291Z,20.95
2022-12-01T06:39:02.340Z,20.77
2022-12-01T06:41:32.016Z,20.98
2022-12-01T06:44:02.066Z,22.67
2022-12-01T06:46:31.754Z,21.55
2022-12-01T06:49:01.526Z,22.20
2022-12-01T06:51:33.550Z,21.60
2022-12-01T06:54:05.955Z,23.67
2022-12-01T06:56:35.431Z,22.63
2022-12-01T06:59:04.974Z,22.35
2022-12-01T07:01:34.838Z,23.52
2022-12-01T07:04:04.884Z,22.35
2022-12-01T07:06:34.557Z,22.95
2022-12-01T07:09:07.130Z,22.25
2022-12-01T07:11:37.101Z,20.27
2022-12-01T07:14:06.912Z,19.85
2022-12-01T07:16:36.836Z,21.02
2022-12-01T07:19:07.138Z,21.02
2022-12-01T07:21:37.557Z,23.10
2022-12-01T07:24:12.631Z,22.60
2022-12-01T07:26:42.410Z,21.02
2022-12-01T07:29:12.335Z,22.27
2022-12-01T07:31:42.085Z,22.30
2022-12-01T07:34:13.708Z,24.38
2022-12-01T07:36:43.591Z,23.63
2022-12-01T07:39:15.711Z,23.77
2022-12-01T07:41:45.364Z,23.17
2022-12-01T07:44:15.554Z,23.65
2022-12-01T07:46:45.339Z,23.23
2022-12-01T07:49:15.722Z,23.30
2022-12-01T07:51:45.285Z,24.10
2022-12-01T07:54:20.120Z,22.85
2022-12-01T07:56:49.578Z,22.67
2022-12-01T07:59:19.031Z,21.83
2022-12-01T08:01:48.598Z,22.67
2022-12-01T08:04:19.105Z,22.15
2022-12-01T08:06:48.544Z,22.65
2022-12-01T08:09:20.575Z,23.27
2022-12-01T08:11:50.020Z,21.88
2022-12-01T08:14:19.479Z,21.73
2022-12-01T08:16:50.556Z,22.38
2022-12-01T08:21:50.780Z,23.58
2022-12-01T08:24:23.318Z,23.63
2022-12-01T08:26:53.111Z,24.20
2022-12-01T08:29:22.574Z,25.17
2022-12-01T08:31:52.043Z,24.77
2022-12-01T08:34:21.558Z,23.92
2022-12-01T08:36:51.406Z,23.92
2022-12-01T08:39:24.010Z,24.58
2022-12-01T08:41:53.733Z,23.77
2022-12-01T08:44:23.478Z,24.20
2022-12-01T08:46:53.197Z,23.08
2022-12-01T08:49:23.029Z,22.83
2022-12-01T08:51:53.315Z,22.50
2022-12-01T08:54:25.985Z,24.30
2022-12-01T08:56:55.793Z,21.27
2022-12-01T08:59:25.931Z,23.00
2022-12-01T09:01:57.749Z,23.60
2022-12-01T09:04:29.890Z,22.70
2022-12-01T09:07:00.138Z,22.25
2022-12-01T09:09:32.507Z,22.33
2022-12-01T09:12:02.032Z,22.92
2022-12-01T09:14:31.860Z,22.80
2022-12-01T09:17:01.596Z,21.60
2022-12-01T09:19:32.004Z,23.23
2022-12-01T09:22:01.939Z,22.13
2022-12-01T09:24:34.943Z,22.00
2022-12-01T09:27:04.805Z,20.40
2022-12-01T09:29:36.250Z,20.20
2022-12-01T09:32:08.214Z,20.05
2022-12-01T09:34:38.690Z,18.13
2022-12-01T09:37:09.108Z,19.33
2022-12-01T09:39:41.990Z,19.00
2022-12-01T09:42:17.444Z,18.52
2022-12-01T09:44:52.013Z,18.10
2022-12-01T09:47:26.556Z,18.30
2022-12-01T09:50:00.502Z,17.73
2022-12-01T09:52:34.067Z,18.65
2022-12-01T09:55:07.075Z,18.45
2022-12-01T09:57:37.442Z,17.63
2022-12-01T10:00:09.325Z,19.08
2022-12-01T10:02:41.184Z,18.95
2022-12-01T10:05:15.080Z,19.00
2022-12-01T10:07:48.172Z,19.80
2022-12-01T10:10:23.799Z,19.05
2022-12-01T10:12:53.772Z,20.63
2022-12-01T10:15:30.661Z,19.98
2022-12-01T10:18:06.710Z,19.60
2022-12-01T10:20:39.653Z,19.42
2022-12-01T10:23:22.803Z,18.45
2022-12-01T10:26:06.695Z,19.20
2022-12-01T10:29:05.682Z,18.00
2022-12-01T10:31:39.132Z,18.27
2022-12-01T10:34:21.551Z,18.10
2022-12-01T10:36:53.234Z,18.95
2022-12-01T10:39:25.245Z,19.38
2022-12-01T10:42:00.797Z,19.73
2022-12-01T10:44:31.323Z,18.50
2022-12-01T10:47:57.601Z,19.42
2022-12-01T10:50:45.019Z,18.65
2022-12-01T10:54:00.774Z,18.13
2022-12-01T10:57:25.298Z,17.63
2022-12-01T11:04:30.334Z,20.00
2022-12-01T11:11:42.642Z,19.30
2022-12-01T11:25:34.611Z,25.88
2022-12-01T11:29:07.756Z,27.88
2022-12-01T11:31:49.401Z,22.98
2022-12-01T11:34:28.891Z,22.17
2022-12-01T11:37:10.106Z,21.88
2022-12-01T11:39:58.745Z,22.52
2022-12-01T11:42:39.245Z,22.05
2022-12-01T11:45:13.024Z,22.60
2022-12-01T11:48:13.483Z,21.63
2022-12-01T11:50:47.966Z,21.05
2022-12-01T11:53:29.025Z,21.10
2022-12-01T11:56:23.240Z,20.23
2022-12-01T11:58:53.474Z,20.02
2022-12-01T12:01:33.919Z,20.05
2022-12-01T12:04:13.352Z,20.80
2022-12-01T12:06:45.019Z,19.88
2022-12-01T12:09:23.027Z,19.75
2022-12-01T12:12:20.753Z,20.13
2022-12-01T12:15:19.472Z,20.08
2022-12-01T12:18:01.241Z,20.58
2022-12-01T12:21:08.291Z,19.48
2022-12-01T12:24:28.100Z,20.00
2022-12-01T12:27:50.819Z,19.73
2022-12-01T12:37:32.131Z,17.58
2022-12-01T12:40:38.919Z,18.85
2022-12-01T12:43:28.061Z,18.35
2022-12-01T12:46:07.735Z,17.83
2022-12-01T12:49:34.838Z,17.75
2022-12-01T12:52:14.613Z,17.80
2022-12-01T12:54:59.108Z,18.50
2022-12-01T12:57:45.078Z,18.88
2022-12-01T13:00:33.389Z,19.70
2022-12-01T13:03:19.676Z,18.73
2022-12-01T13:05:54.427Z,19.05
2022-12-01T13:08:36.713Z,18.77
2022-12-01T13:11:11.610Z,19.30
2022-12-01T13:13:49.102Z,17.65
2022-12-01T13:16:21.302Z,17.90
2022-12-01T13:18:55.281Z,18.63
2022-12-01T13:21:30.126Z,18.85
2022-12-01T13:24:07.146Z,18.83
2022-12-01T13:26:40.162Z,19.20
2022-12-01T13:29:12.876Z,19.63
2022-12-01T13:32:00.590Z,19.63
2022-12-01T13:34:39.866Z,22.08
2022-12-01T13:37:13.380Z,19.90
2022-12-01T13:39:57.374Z,19.95
2022-12-01T13:42:34.545Z,18.83
2022-12-01T13:45:32.715Z,19.50
2022-12-01T13:48:22.207Z,19.35
2022-12-01T13:51:12.827Z,19.83
2022-12-01T13:53:50.898Z,19.88
2022-12-01T13:56:53.268Z,20.70
2022-12-01T13:59:53.770Z,20.30
2022-12-01T14:02:35.404Z,20.63
2022-12-01T14:05:36.420Z,19.40
2022-12-01T14:08:07.764Z,20.15
2022-12-01T14:10:38.728Z,19.77
2022-12-01T14:13:22.595Z,18.30
2022-12-01T14:15:57.088Z,17.95
2022-12-01T14:18:35.787Z,19.85
2022-12-01T14:21:06.490Z,20.17
2022-12-01T14:23:37.587Z,18.77
2022-12-01T14:29:13.659Z,18.67
2022-12-01T14:32:28.098Z,19.08
2022-12-01T14:35:00.823Z,19.10
2022-12-01T14:37:37.277Z,19.55
2022-12-01T14:40:12.893Z,18.60
2022-12-01T14:42:56.381Z,18.00
2022-12-01T14:45:33.312Z,17.55
2022-12-01T14:48:14.440Z,17.80
2022-12-01T14:53:26.993Z,17.30
2022-12-01T14:55:59.096Z,17.85
2022-12-01T14:58:29.983Z,17.23
2022-12-01T15:01:09.784Z,16.70
2022-12-01T15:03:41.728Z,16.90
2022-12-01T15:06:11.738Z,16.60
2022-12-01T15:08:49.324Z,17.08
2022-12-01T15:11:25.582Z,17.45
2022-12-01T15:13:56.006Z,17.40
2022-12-01T15:16:32.162Z,16.45
2022-12-01T15:19:02.633Z,18.23
2022-12-01T15:21:33.726Z,17.13
2022-12-01T15:26:35.161Z,17.53
2022-12-01T15:29:19.356Z,16.77
2022-12-01T15:31:54.100Z,17.40
2022-12-01T15:34:24.976Z,17.52
2022-12-01T15:36:55.495Z,17.27
2022-12-01T15:39:28.388Z,16.90
2022-12-01T15:41:57.915Z,17.20
2022-12-01T15:44:30.926Z,17.42
2022-12-01T15:47:03.182Z,17.92
2022-12-01T15:49:33.633Z,16.50
2022-12-01T15:52:08.479Z,16.65
2022-12-01T15:54:38.022Z,15.50
2022-12-01T15:57:07.778Z,16.60
2022-12-01T15:59:40.076Z,16.40
2022-12-01T16:02:22.210Z,16.17
2022-12-01T16:04:52.000Z,16.33
2022-12-01T16:07:28.381Z,16.17
2022-12-01T16:09:59.321Z,15.20
2022-12-01T16:12:29.041Z,15.30
2022-12-01T16:15:06.934Z,15.73
2022-12-01T16:17:46.959Z,14.90
2022-12-01T16:20:21.549Z,14.80
2022-12-01T16:22:56.589Z,15.20
2022-12-01T16:25:34.514Z,14.73
2022-12-01T16:28:04.235Z,14.48
2022-12-01T16:30:38.247Z,13.93
2022-12-01T16:33:19.974Z,14.50
2022-12-01T16:35:49.467Z,14.05
2022-12-01T16:38:20.775Z,14.35
2022-12-01T16:40:50.584Z,14.52
2022-12-01T16:43:22.940Z,14.65
2022-12-01T16:45:53.292Z,14.75
2022-12-01T16:48:25.552Z,14.32
2022-12-01T16:50:55.139Z,14.77
2022-12-01T16:53:24.703Z,14.65
2022-12-01T16:55:55.944Z,14.40
2022-12-01T16:58:25.908Z,14.15
2022-12-01T17:00:55.488Z,14.70
2022-12-01T17:03:29.250Z,13.73
2022-12-01T17:05:58.878Z,14.30
2022-12-01T17:08:28.316Z,14.52
2022-12-01T17:10:57.896Z,14.07
2022-12-01T17:13:27.359Z,13.23
2022-12-01T17:15:57.222Z,13.65
2022-12-01T17:18:29.315Z,13.75
2022-12-01T17:20:59.980Z,13.80
2022-12-01T17:23:29.434Z,13.63
2022-12-01T17:25:58.901Z,16.45
2022-12-01T17:28:28.442Z,17.55
2022-12-01T17:30:58.000Z,15.57
2022-12-01T17:33:30.196Z,16.08
2022-12-01T17:36:02.756Z,14.45
2022-12-01T17:38:32.242Z,12.90
2022-12-01T17:41:06.157Z,12.50
2022-12-01T17:43:36.117Z,12.98
2022-12-01T17:46:06.072Z,12.20
2022-12-01T17:48:40.769Z,12.13
2022-12-01T17:51:10.395Z,12.07
2022-12-01T17:53:40.344Z,12.27
2022-12-01T17:56:10.891Z,11.52
2022-12-01T17:58:40.397Z,12.40
2022-12-01T18:01:09.928Z,12.73
2022-12-01T18:03:42.131Z,13.32
2022-12-01T18:06:11.602Z,12.10
2022-12-01T18:08:41.180Z,12.15
2022-12-01T18:11:11.798Z,14.00
2022-12-01T18:13:41.678Z,17.33
2022-12-01T18:16:11.271Z,14.75
2022-12-01T18:18:43.376Z,16.33
2022-12-01T18:21:14.494Z,14.40
2022-12-01T18:26:16.339Z,14.75
2022-12-01T18:28:46.048Z,13.60
2022-12-01T18:31:16.718Z,13.93
2022-12-01T18:33:48.916Z,14.85
2022-12-01T18:36:22.423Z,14.10
2022-12-01T18:38:54.572Z,14.82
2022-12-01T18:41:24.074Z,14.40
2022-12-01T18:43:53.677Z,15.13
2022-12-01T18:46:23.370Z,14.68
2022-12-01T18:49:00.501Z,14.52
2022-12-01T18:51:30.058Z,15.40
2022-12-01T18:54:00.306Z,17.15
2022-12-01T18:56:29.865Z,15.52
2022-12-01T18:58:59.642Z,15.63
2022-12-01T19:01:31.925Z,14.93
2022-12-01T19:04:05.142Z,14.70
2022-12-01T19:06:35.406Z,15.48
2022-12-01T19:09:06.239Z,14.57
2022-12-01T19:11:36.010Z,15.68
2022-12-01T19:14:06.186Z,16.05
2022-12-01T19:16:35.914Z,16.77
2022-12-01T19:19:08.044Z,16.30
2022-12-01T19:21:37.570Z,15.35
2022-12-01T19:24:07.707Z,16.60
2022-12-01T19:26:37.170Z,16.80
2022-12-01T19:29:06.738Z,16.45
2022-12-01T19:31:36.300Z,16.48
2022-12-01T19:34:08.458Z,15.73
2022-12-01T19:36:37.977Z,16.33
2022-12-01T19:39:07.940Z,16.38
2022-12-01T19:41:38.102Z,16.42
2022-12-01T19:44:07.938Z,15.45
2022-12-01T19:46:37.842Z,16.83
2022-12-01T19:49:10.264Z,16.77
2022-12-01T19:51:40.811Z,16.73
2022-12-01T19:54:13.250Z,17.27
2022-12-01T19:56:43.401Z,17.23
2022-12-01T19:59:13.619Z,17.87
2022-12-01T20:01:43.317Z,16.45
2022-12-01T20:04:15.502Z,17.25
2022-12-01T20:06:45.108Z,16.85
2022-12-01T20:09:14.883Z,16.55
2022-12-01T20:11:44.405Z,17.20
2022-12-01T20:14:13.950Z,17.63
2022-12-01T20:16:43.527Z,17.33
2022-12-01T20:19:15.758Z,17.55
2022-12-01T20:21:45.298Z,18.52
2022-12-01T20:24:15.530Z,17.30
2022-12-01T20:26:46.127Z,17.63
2022-12-01T20:29:17.260Z,16.90
2022-12-01T20:34:21.131Z,17.23
2022-12-01T20:36:51.015Z,17.30
2022-12-01T20:39:24.758Z,17.92
2022-12-01T20:41:54.258Z,17.42
2022-12-01T20:44:26.625Z,17.15
2022-12-01T20:46:56.127Z,16.95
2022-12-01T20:49:28.240Z,17.63
2022-12-01T20:51:57.752Z,18.35
2022-12-01T20:54:29.155Z,17.83
2022-12-01T20:56:59.559Z,18.35
2022-12-01T20:59:29.367Z,17.42
2022-12-01T21:01:58.962Z,17.80
2022-12-01T21:04:31.169Z,17.25
2022-12-01T21:07:00.772Z,18.95
2022-12-01T21:09:30.404Z,17.40
2022-12-01T21:12:12.876Z,17.38
2022-12-01T21:14:45.075Z,16.83
2022-12-01T21:17:21.526Z,17.65
2022-12-01T21:19:56.546Z,18.20
2022-12-01T21:22:27.423Z,17.48
2022-12-01T21:25:00.499Z,17.25
2022-12-01T21:27:29.996Z,17.05
2022-12-01T21:30:01.411Z,18.17
2022-12-01T21:32:32.572Z,17.48
2022-12-01T21:35:10.027Z,17.98
2022-12-01T21:37:39.541Z,17.70
2022-12-01T21:40:16.368Z,17.48
2022-12-01T21:42:45.884Z,18.02
2022-12-01T21:45:25.022Z,17.35
2022-12-01T21:47:54.528Z,17.38
2022-12-01T21:50:27.330Z,18.08
2022-12-01T21:52:57.198Z,19.30
2022-12-01T21:55:38.890Z,18.80
2022-12-01T21:58:37.120Z,19.15
2022-12-01T22:01:17.033Z,18.20
2022-12-01T22:03:47.040Z,18.80
2022-12-01T22:06:31.988Z,18.42
2022-12-01T22:09:03.102Z,18.48
2022-12-01T22:14:13.195Z,18.90
2022-12-01T22:16:44.191Z,18.42
2022-12-01T22:19:30.549Z,18.35
2022-12-01T22:22:20.011Z,18.60
2022-12-01T22:24:50.390Z,18.70
2022-12-01T22:27:38.199Z,18.65
2022-12-01T22:30:25.191Z,18.88
2022-12-01T22:32:57.401Z,19.13
2022-12-01T22:35:29.142Z,19.35
2022-12-01T22:38:15.256Z,19.23
2022-12-01T22:40:46.444Z,19.48
2022-12-01T22:43:26.633Z,19.40
2022-12-01T22:46:13.564Z,19.27
2022-12-01T22:48:43.946Z,18.92
2022-12-01T22:51:30.187Z,18.92
2022-12-01T22:54:04.304Z,19.70
2022-12-01T22:56:36.498Z,18.95
2022-12-01T22:59:13.154Z,19.20
2022-12-01T23:01:44.906Z,19.92
2022-12-01T23:04:21.436Z,19.42
2022-12-01T23:07:00.214Z,19.73
2022-12-01T23:09:35.240Z,18.58
2022-12-01T23:12:23.607Z,19.23
2022-12-01T23:14:54.038Z,18.48
2022-12-01T23:17:24.441Z,19.13
2022-12-01T23:19:56.035Z,20.05
2022-12-01T23:22:25.511Z,18.73
2022-12-01T23:24:57.542Z,19.65
2022-12-01T23:27:27.043Z,18.95
2022-12-01T23:29:56.765Z,19.60
2022-12-01T23:32:26.275Z,18.90
2022-12-01T23:34:59.957Z,18.88
2022-12-01T23:37:34.419Z,18.80
2022-12-01T23:40:15.854Z,19.48
2022-12-01T23:42:45.342Z,18.38
2022-12-01T23:45:17.260Z,18.95
2022-12-01T23:47:46.778Z,19.08
2022-12-01T23:50:18.939Z,20.25
2022-12-01T23:52:48.492Z,19.88
2022-12-01T23:55:23.453Z,19.33
2022-12-01T23:57:52.985Z,20.15
